Time;durP1;ratioP1;P1;durP2;ratioP2;P2;SDS_P1;SDS_P2;PMS_P1;PMS_P2;Temp;Humidity;BMP_temperature;BMP_pressure;BME280_temperature;BME280_humidity;BME280_pressure;Samples;Min_cycle;Max_cycle;Signal;HPM_P1;HPM_P2
2021/03/02 00:00:22;;;;;;;39.25;18.48;;;1.30;94.10;;;;;;5031905;28;20398;-84
2021/03/02 00:02:47;;;;;;;36.83;18.55;;;1.40;94.70;;;;;;5031615;28;20728;-83
2021/03/02 00:05:14;;;;;;;32.30;17.50;;;1.40;94.50;;;;;;5030337;28;20490;-84
2021/03/02 00:07:39;;;;;;;34.97;17.23;;;1.30;94.30;;;;;;5030998;28;20375;-84
2021/03/02 00:10:10;;;;;;;40.92;19.33;;;1.20;94.10;;;;;;5031500;28;20387;-84
2021/03/02 00:12:38;;;;;;;46.72;19.75;;;1.20;94.10;;;;;;5031286;28;20418;-83
2021/03/02 00:15:06;;;;;;;38.25;18.88;;;1.10;94.30;;;;;;5030182;28;20399;-83
2021/03/02 00:17:42;;;;;;;36.80;18.17;;;1.10;94.30;;;;;;5029811;28;20426;-83
2021/03/02 00:20:09;;;;;;;38.35;17.73;;;1.20;94.40;;;;;;5031421;28;20511;-83
2021/03/02 00:22:58;;;;;;;35.47;16.35;;;1.10;94.50;;;;;;5029892;28;20854;-84
2021/03/02 00:25:32;;;;;;;35.33;17.13;;;1.20;94.60;;;;;;5031466;28;20419;-84
2021/03/02 00:28:00;;;;;;;35.65;17.20;;;1.20;94.60;;;;;;5030978;28;20567;-83
2021/03/02 00:30:26;;;;;;;38.00;17.77;;;1.30;94.80;;;;;;5029798;28;20421;-84
2021/03/02 00:32:53;;;;;;;39.80;18.30;;;1.30;94.90;;;;;;5029447;28;20868;-83
2021/03/02 00:35:18;;;;;;;40.75;18.50;;;1.30;94.80;;;;;;5030053;28;20402;-84
2021/03/02 00:37:47;;;;;;;38.28;18.63;;;1.30;94.80;;;;;;5030449;28;20383;-83
2021/03/02 00:40:14;;;;;;;38.60;18.65;;;1.30;94.80;;;;;;5031435;28;20382;-83
2021/03/02 00:42:39;;;;;;;41.17;19.50;;;1.40;94.80;;;;;;5029122;28;20401;-83
2021/03/02 00:45:06;;;;;;;40.47;20.00;;;1.40;94.90;;;;;;5029789;28;20383;-83
2021/03/02 00:47:31;;;;;;;37.80;19.88;;;1.40;94.90;;;;;;5028899;28;20383;-83
2021/03/02 00:49:57;;;;;;;42.40;19.63;;;1.40;95.10;;;;;;5031049;28;20875;-83
2021/03/02 00:52:22;;;;;;;41.37;20.43;;;1.40;95.30;;;;;;5030669;28;20389;-83
2021/03/02 00:54:48;;;;;;;44.03;20.20;;;1.30;95.50;;;;;;5030774;28;20422;-84
2021/03/02 00:57:13;;;;;;;47.63;21.07;;;1.30;95.40;;;;;;5028850;28;20379;-84
2021/03/02 00:59:39;;;;;;;46.37;20.90;;;1.30;95.50;;;;;;5030655;28;20415;-83
2021/03/02 01:02:04;;;;;;;44.73;20.37;;;1.30;95.30;;;;;;5030195;28;20844;-83
2021/03/02 01:04:30;;;;;;;45.42;20.98;;;1.30;95.30;;;;;;5030206;28;20892;-83
2021/03/02 01:06:56;;;;;;;41.63;20.30;;;1.20;95.50;;;;;;5030237;28;20391;-84
2021/03/02 01:09:21;;;;;;;42.10;20.63;;;1.20;95.40;;;;;;5028906;28;20422;-83
2021/03/02 01:11:47;;;;;;;46.80;20.77;;;1.30;95.50;;;;;;5030474;28;20426;-83
2021/03/02 01:14:13;;;;;;;43.77;20.37;;;1.30;95.50;;;;;;5030182;28;20382;-83
2021/03/02 01:16:39;;;;;;;37.42;19.15;;;1.20;95.20;;;;;;5030151;28;20379;-83
2021/03/02 01:19:05;;;;;;;43.45;20.63;;;1.20;95.30;;;;;;5028732;28;20910;-84
2021/03/02 01:21:30;;;;;;;42.87;21.07;;;1.20;95.40;;;;;;5030544;28;20386;-83
2021/03/02 01:23:56;;;;;;;41.37;19.47;;;1.20;95.50;;;;;;5030618;28;20391;-83
2021/03/02 01:26:21;;;;;;;40.67;19.00;;;1.10;95.30;;;;;;5029147;28;20749;-84
2021/03/02 01:28:47;;;;;;;44.43;18.97;;;1.10;95.20;;;;;;5029963;28;20411;-84
2021/03/02 01:31:12;;;;;;;47.97;21.00;;;1.10;95.30;;;;;;5030276;28;20387;-83
2021/03/02 01:33:38;;;;;;;40.97;19.63;;;1.10;95.20;;;;;;5029775;28;20391;-83
2021/03/02 01:36:04;;;;;;;42.33;20.30;;;1.10;95.30;;;;;;5028995;28;20389;-83
2021/03/02 01:38:29;;;;;;;40.80;19.80;;;1.10;95.20;;;;;;5029574;28;20776;-83
2021/03/02 01:40:55;;;;;;;40.07;20.10;;;1.00;95.20;;;;;;5029747;28;20426;-83
2021/03/02 01:43:20;;;;;;;37.90;18.57;;;1.00;95.30;;;;;;5030368;28;20379;-83
2021/03/02 01:45:46;;;;;;;40.80;19.97;;;1.00;95.20;;;;;;5029722;28;20461;-83
2021/03/02 01:48:12;;;;;;;43.97;19.90;;;1.00;95.10;;;;;;5029654;28;20397;-83
2021/03/02 01:50:38;;;;;;;39.97;19.48;;;1.00;95.00;;;;;;5030260;28;20398;-83
2021/03/02 01:53:03;;;;;;;46.60;20.10;;;0.90;95.00;;;;;;5028935;28;20445;-83
2021/03/02 01:55:29;;;;;;;45.08;20.85;;;0.90;94.90;;;;;;5029941;28;20426;-83
2021/03/02 01:57:54;;;;;;;38.53;19.63;;;0.90;95.20;;;;;;5029572;28;20387;-83
2021/03/02 02:00:31;;;;;;;40.37;18.77;;;0.90;95.20;;;;;;5030469;28;20383;-83
2021/03/02 02:03:25;;;;;;;41.90;19.83;;;0.90;95.30;;;;;;5028327;28;20937;-83
2021/03/02 02:06:02;;;;;;;36.43;18.43;;;0.90;95.20;;;;;;5028894;28;20395;-82
2021/03/02 02:08:39;;;;;;;40.37;19.43;;;0.90;95.00;;;;;;5029409;28;20462;-83
2021/03/02 02:11:17;;;;;;;35.55;18.25;;;0.80;94.90;;;;;;5030074;28;20568;-83
2021/03/02 02:13:48;;;;;;;36.72;18.23;;;0.80;94.70;;;;;;5028414;28;20564;-83
2021/03/02 02:16:16;;;;;;;38.58;18.60;;;0.70;94.50;;;;;;5031518;28;20410;-83
2021/03/02 02:18:44;;;;;;;43.45;19.75;;;0.70;94.50;;;;;;5033056;28;20778;-83
2021/03/02 02:21:12;;;;;;;41.58;18.98;;;0.60;94.70;;;;;;5032066;28;20556;-83
2021/03/02 02:23:40;;;;;;;37.33;18.08;;;0.60;94.60;;;;;;5032287;28;20427;-83
2021/03/02 02:26:21;;;;;;;38.00;18.42;;;0.60;94.70;;;;;;5032051;28;20397;-83
2021/03/02 02:28:48;;;;;;;39.15;19.00;;;0.60;94.60;;;;;;5033033;28;20575;-83
2021/03/02 02:31:17;;;;;;;37.55;19.38;;;0.40;94.60;;;;;;5031857;28;20491;-83
2021/03/02 02:33:44;;;;;;;35.08;17.85;;;0.40;94.40;;;;;;5032189;28;20430;-83
2021/03/02 02:36:12;;;;;;;35.53;18.52;;;0.40;94.60;;;;;;5032041;28;20883;-83
2021/03/02 02:38:42;;;;;;;43.10;19.25;;;0.40;94.60;;;;;;5033230;28;20646;-83
2021/03/02 02:41:09;;;;;;;38.00;18.15;;;0.40;94.70;;;;;;5033364;28;20379;-83
2021/03/02 02:43:35;;;;;;;34.90;17.88;;;0.40;94.80;;;;;;5033228;28;20378;-83
2021/03/02 02:46:01;;;;;;;36.75;18.10;;;0.40;94.90;;;;;;5032500;28;20379;-83
2021/03/02 02:48:28;;;;;;;35.63;17.88;;;0.40;94.80;;;;;;5033086;28;20884;-83
2021/03/02 02:50:55;;;;;;;40.60;18.27;;;0.40;94.90;;;;;;5033789;28;20476;-83
2021/03/02 02:53:21;;;;;;;40.25;19.95;;;0.30;94.80;;;;;;5031907;28;20816;-83
2021/03/02 02:55:55;;;;;;;40.55;18.30;;;0.40;94.90;;;;;;5033441;28;20478;-83
2021/03/02 02:58:27;;;;;;;37.75;19.17;;;0.30;94.70;;;;;;5031374;28;20472;-83
2021/03/02 03:00:56;;;;;;;44.90;20.00;;;0.40;94.90;;;;;;5033485;28;20391;-83
2021/03/02 03:03:24;;;;;;;34.60;18.67;;;0.30;94.80;;;;;;5033049;28;20402;-83
2021/03/02 03:05:55;;;;;;;40.72;18.92;;;0.20;94.80;;;;;;5032642;28;20391;-83
2021/03/02 03:08:24;;;;;;;33.97;17.88;;;0.20;94.80;;;;;;5031550;28;20394;-83
2021/03/02 03:10:53;;;;;;;38.50;18.52;;;0.20;94.70;;;;;;5031433;28;20395;-83
2021/03/02 03:13:21;;;;;;;34.38;17.13;;;0.20;94.70;;;;;;5032700;28;20387;-83
2021/03/02 03:15:53;;;;;;;40.17;17.98;;;0.20;94.70;;;;;;5032695;28;20902;-83
2021/03/02 03:18:23;;;;;;;39.63;19.60;;;0.20;94.50;;;;;;5031164;28;20931;-83
2021/03/02 03:20:49;;;;;;;40.97;18.87;;;0.20;94.50;;;;;;5031184;28;20416;-83
2021/03/02 03:23:16;;;;;;;39.90;19.02;;;0.20;94.70;;;;;;5032605;28;20428;-83
2021/03/02 03:25:42;;;;;;;41.45;19.95;;;0.20;94.60;;;;;;5032097;28;20374;-83
2021/03/02 03:28:10;;;;;;;45.95;21.30;;;0.10;94.70;;;;;;5032091;28;20399;-83
2021/03/02 03:30:37;;;;;;;44.20;20.00;;;0.10;94.90;;;;;;5032391;28;20382;-83
2021/03/02 03:33:06;;;;;;;40.73;19.60;;;0.10;94.90;;;;;;5032156;28;20463;-83
2021/03/02 03:35:33;;;;;;;44.70;20.80;;;0.10;94.90;;;;;;5032343;28;20905;-83
2021/03/02 03:37:59;;;;;;;47.83;20.63;;;0.00;94.90;;;;;;5030358;28;20391;-83
2021/03/02 03:40:24;;;;;;;42.72;19.42;;;0.00;95.00;;;;;;5031053;28;20409;-83
2021/03/02 03:42:50;;;;;;;46.53;20.40;;;0.00;95.00;;;;;;5031967;28;20386;-83
2021/03/02 03:45:17;;;;;;;44.00;20.33;;;0.00;94.90;;;;;;5030712;28;20445;-83
2021/03/02 03:47:42;;;;;;;43.60;19.83;;;0.00;94.90;;;;;;5031122;28;20908;-83
2021/03/02 03:50:09;;;;;;;42.28;19.70;;;0.10;94.90;;;;;;5032161;28;20379;-83
2021/03/02 03:52:38;;;;;;;42.10;20.37;;;0.00;94.80;;;;;;5031681;28;20551;-83
2021/03/02 03:55:06;;;;;;;45.50;19.83;;;0.00;94.80;;;;;;5030671;28;20410;-83
2021/03/02 03:57:32;;;;;;;41.38;19.63;;;0.00;94.80;;;;;;5030772;28;20472;-83
2021/03/02 04:00:00;;;;;;;42.20;19.38;;;0.00;94.80;;;;;;5031596;28;20764;-83
2021/03/02 04:02:26;;;;;;;37.70;19.02;;;0.00;94.80;;;;;;5030463;28;20395;-83
2021/03/02 04:04:52;;;;;;;43.15;19.00;;;0.00;94.60;;;;;;5030310;28;20398;-83
2021/03/02 04:07:18;;;;;;;50.97;21.00;;;0.00;94.70;;;;;;5031182;28;20387;-83
2021/03/02 04:09:45;;;;;;;45.40;20.60;;;0.00;94.80;;;;;;5030180;28;20430;-83
2021/03/02 04:12:12;;;;;;;44.40;20.70;;;0.00;94.70;;;;;;5030373;28;20387;-83
2021/03/02 04:14:38;;;;;;;46.85;20.63;;;0.00;94.80;;;;;;5031343;28;20437;-84
2021/03/02 04:17:04;;;;;;;45.58;20.13;;;-3276.60;94.80;;;;;;5031117;28;20433;-84
2021/03/02 04:19:30;;;;;;;48.90;21.10;;;-3276.70;94.90;;;;;;5030709;28;20415;-84
2021/03/02 04:21:56;;;;;;;47.85;20.90;;;-3276.70;95.10;;;;;;5031151;28;20398;-84
2021/03/02 04:24:21;;;;;;;41.80;20.73;;;-3276.70;95.00;;;;;;5029757;28;20761;-83
2021/03/02 04:26:47;;;;;;;47.47;20.43;;;0.00;95.10;;;;;;5029804;28;20512;-84
2021/03/02 04:29:13;;;;;;;46.50;19.53;;;-3276.70;95.00;;;;;;5029551;28;20563;-84
2021/03/02 04:31:39;;;;;;;43.17;19.57;;;-3276.60;94.90;;;;;;5031224;28;20418;-82
2021/03/02 04:34:05;;;;;;;44.60;19.70;;;-3276.70;94.90;;;;;;5031256;28;20756;-84
2021/03/02 04:36:30;;;;;;;42.70;19.55;;;-3276.70;94.70;;;;;;5030765;28;20379;-84
2021/03/02 04:38:56;;;;;;;50.50;21.60;;;-3276.60;94.60;;;;;;5030216;28;20454;-85
2021/03/02 04:41:22;;;;;;;50.50;22.13;;;-3276.60;94.90;;;;;;5029435;28;20391;-84
2021/03/02 04:43:48;;;;;;;50.85;22.42;;;-3276.60;95.10;;;;;;5029632;28;20398;-84
2021/03/02 04:46:13;;;;;;;43.87;21.30;;;-3276.60;95.00;;;;;;5030839;28;20807;-84
2021/03/02 04:48:39;;;;;;;46.90;20.37;;;-3276.70;95.00;;;;;;5029362;28;20383;-84
2021/03/02 04:51:05;;;;;;;41.87;19.10;;;-3276.70;94.80;;;;;;5031366;28;20396;-84
2021/03/02 04:53:30;;;;;;;41.90;20.00;;;-3276.60;94.70;;;;;;5029716;28;20383;-84
2021/03/02 04:55:56;;;;;;;45.58;20.08;;;-3276.60;94.50;;;;;;5029296;28;20391;-84
2021/03/02 04:58:21;;;;;;;49.70;21.45;;;-3276.60;94.50;;;;;;5028876;28;20473;-83
2021/03/02 05:00:47;;;;;;;51.72;21.35;;;-3276.60;94.50;;;;;;5031091;28;20386;-84
2021/03/02 05:03:12;;;;;;;52.65;22.23;;;-3276.60;94.60;;;;;;5030521;28;20403;-84
2021/03/02 05:05:38;;;;;;;50.63;22.48;;;-3276.50;94.60;;;;;;5030577;28;20492;-84
2021/03/02 05:08:04;;;;;;;60.60;23.40;;;-3276.50;94.80;;;;;;5029925;28;20386;-84
2021/03/02 05:10:30;;;;;;;52.38;22.85;;;-3276.60;94.80;;;;;;5029033;28;20395;-84
2021/03/02 05:12:55;;;;;;;70.73;24.80;;;-3276.40;94.80;;;;;;5030392;28;20490;-84
2021/03/02 05:15:21;;;;;;;60.27;23.57;;;-3276.50;94.90;;;;;;5029287;28;20441;-84
2021/03/02 05:17:46;;;;;;;62.30;24.03;;;-3276.60;94.70;;;;;;5029903;28;20470;-84
2021/03/02 05:20:12;;;;;;;70.20;26.53;;;-3276.50;94.70;;;;;;5030815;28;20415;-84
2021/03/02 05:22:38;;;;;;;59.08;24.27;;;-3276.40;94.90;;;;;;5029142;28;20881;-83
2021/03/02 05:25:04;;;;;;;65.80;25.50;;;-3276.50;95.10;;;;;;5029473;28;20391;-84
2021/03/02 05:27:30;;;;;;;59.17;24.60;;;-3276.50;94.90;;;;;;5030007;28;20390;-84
2021/03/02 05:29:56;;;;;;;72.82;26.63;;;-3276.50;95.10;;;;;;5030111;28;20406;-84
2021/03/02 05:32:21;;;;;;;69.55;26.35;;;-3276.40;95.00;;;;;;5029268;28;20768;-84
2021/03/02 05:34:47;;;;;;;64.50;25.07;;;-3276.40;95.20;;;;;;5030456;28;20383;-84
2021/03/02 05:37:12;;;;;;;65.07;25.17;;;-3276.40;95.20;;;;;;5030303;28;20383;-84
2021/03/02 05:39:38;;;;;;;66.50;24.50;;;-3276.40;95.20;;;;;;5030491;28;20403;-84
2021/03/02 05:42:06;;;;;;;69.00;24.33;;;-3276.40;95.30;;;;;;5030244;28;20406;-84
2021/03/02 05:44:32;;;;;;;61.03;24.25;;;-3276.40;95.50;;;;;;5029035;28;20739;-84
2021/03/02 05:46:57;;;;;;;55.63;22.93;;;-3276.40;95.40;;;;;;5030131;28;20372;-84
2021/03/02 05:49:23;;;;;;;55.93;23.03;;;-3276.40;95.60;;;;;;5030171;28;20394;-84
2021/03/02 05:51:49;;;;;;;56.43;22.87;;;-3276.40;95.50;;;;;;5034531;28;20383;-84
2021/03/02 05:54:52;;;;;;;54.08;22.17;;;-3276.50;95.40;;;;;;5034545;28;20390;-84
2021/03/02 05:57:17;;;;;;;56.58;22.45;;;-3276.50;95.20;;;;;;5032785;28;20430;-84
2021/03/02 05:59:44;;;;;;;50.33;22.00;;;-3276.60;95.20;;;;;;5034437;28;20424;-84
2021/03/02 06:02:10;;;;;;;48.17;21.83;;;-3276.60;95.10;;;;;;5033673;28;20823;-84
2021/03/02 06:04:35;;;;;;;58.00;23.85;;;-3276.60;95.00;;;;;;5033888;28;20387;-85
2021/03/02 06:07:01;;;;;;;45.40;21.35;;;-3276.60;95.00;;;;;;5033055;28;20383;-84
2021/03/02 06:09:28;;;;;;;52.67;20.50;;;-3276.60;95.10;;;;;;5033563;28;20389;-84
2021/03/02 06:12:05;;;;;;;53.92;21.05;;;-3276.60;95.00;;;;;;5033478;28;20376;-84
2021/03/02 06:14:33;;;;;;;51.17;22.10;;;-3276.60;95.20;;;;;;5031348;28;20392;-85
2021/03/02 06:17:00;;;;;;;50.50;21.83;;;-3276.60;95.30;;;;;;5031763;28;20378;-84
2021/03/02 06:19:37;;;;;;;51.20;23.88;;;-3276.60;95.30;;;;;;5031910;28;20415;-84
2021/03/02 06:22:31;;;;;;;46.58;20.77;;;-3276.60;95.30;;;;;;5032440;28;20398;-85
2021/03/02 06:25:02;;;;;;;46.67;20.25;;;-3276.60;95.30;;;;;;5033377;28;20379;-85
2021/03/02 06:27:30;;;;;;;44.42;20.58;;;-3276.70;95.30;;;;;;5031418;28;20403;-84
2021/03/02 06:30:10;;;;;;;45.22;20.67;;;-3276.70;95.40;;;;;;5033271;28;20406;-84
2021/03/02 06:32:40;;;;;;;51.40;24.23;;;-3276.70;95.50;;;;;;5012187;28;20807;-84
2021/03/02 06:35:10;;;;;;;46.22;21.55;;;-3276.70;95.50;;;;;;5012574;28;20393;-84
2021/03/02 06:37:40;;;;;;;49.50;22.00;;;-3276.70;95.40;;;;;;5011631;28;20524;-84
2021/03/02 06:40:07;;;;;;;50.10;21.92;;;0.00;95.40;;;;;;5020558;28;20430;-84
2021/03/02 06:42:40;;;;;;;51.22;22.48;;;0.00;95.40;;;;;;5031834;28;20441;-84
2021/03/02 06:45:08;;;;;;;52.97;21.52;;;0.00;95.50;;;;;;5031671;28;20872;-84
2021/03/02 06:47:35;;;;;;;47.55;20.95;;;0.00;95.30;;;;;;5032189;28;20380;-84
2021/03/02 06:50:20;;;;;;;39.72;19.58;;;0.00;95.30;;;;;;5031341;28;20399;-84
2021/03/02 06:52:46;;;;;;;47.83;20.98;;;0.00;95.30;;;;;;5033189;28;20375;-84
2021/03/02 06:55:21;;;;;;;49.87;21.37;;;0.00;95.40;;;;;;5031526;28;20440;-84
2021/03/02 06:57:48;;;;;;;44.63;20.85;;;0.00;95.60;;;;;;5032585;28;20807;-84
2021/03/02 07:00:15;;;;;;;47.17;21.70;;;0.10;95.50;;;;;;5031202;28;20405;-84
2021/03/02 07:02:43;;;;;;;43.40;20.13;;;0.10;95.40;;;;;;5032962;28;20385;-84
2021/03/02 07:05:18;;;;;;;42.67;20.80;;;0.10;95.30;;;;;;5032321;28;20474;-84
2021/03/02 07:07:54;;;;;;;45.05;20.38;;;0.00;95.30;;;;;;5032487;28;20394;-84
2021/03/02 07:10:20;;;;;;;46.50;21.60;;;0.00;95.60;;;;;;5031988;28;20407;-84
2021/03/02 07:12:46;;;;;;;44.40;21.17;;;0.20;95.60;;;;;;5031169;28;20399;-84
2021/03/02 07:15:14;;;;;;;40.55;20.52;;;0.10;95.50;;;;;;5032725;28;20446;-84
2021/03/02 07:17:44;;;;;;;46.65;21.48;;;0.20;95.60;;;;;;5030833;28;20389;-83
2021/03/02 07:20:12;;;;;;;44.47;21.15;;;0.30;95.60;;;;;;5032596;28;20494;-84
2021/03/02 07:22:42;;;;;;;56.58;22.52;;;0.40;95.70;;;;;;5030974;28;20382;-84
2021/03/02 07:25:10;;;;;;;45.90;20.52;;;0.40;95.80;;;;;;5032547;28;20412;-84
2021/03/02 07:27:48;;;;;;;39.80;20.45;;;0.50;95.60;;;;;;5031597;28;20392;-84
2021/03/02 07:30:14;;;;;;;55.30;23.98;;;0.40;95.50;;;;;;5032099;28;20407;-82
2021/03/02 07:32:41;;;;;;;47.47;21.60;;;0.70;96.10;;;;;;5030924;28;20379;-81
2021/03/02 07:35:15;;;;;;;52.00;23.50;;;0.70;96.00;;;;;;5030824;28;20394;-81
2021/03/02 07:37:40;;;;;;;54.30;22.23;;;0.80;96.10;;;;;;5031532;28;21054;-81
2021/03/02 07:40:11;;;;;;;56.85;23.08;;;0.80;96.00;;;;;;5031878;28;20502;-81
2021/03/02 07:42:38;;;;;;;56.95;23.67;;;0.90;96.10;;;;;;5032165;28;20406;-81
2021/03/02 07:45:07;;;;;;;56.00;24.52;;;1.10;96.30;;;;;;5030594;28;20378;-81
2021/03/02 07:47:51;;;;;;;58.90;25.13;;;1.20;96.40;;;;;;5030562;28;20391;-81
2021/03/02 07:50:25;;;;;;;53.95;24.15;;;1.40;96.50;;;;;;5031482;28;20381;-81
2021/03/02 07:53:23;;;;;;;55.00;23.15;;;1.40;96.40;;;;;;5030360;28;20442;-81
2021/03/02 07:56:11;;;;;;;61.72;24.50;;;1.50;96.40;;;;;;5041063;28;20481;-81
2021/03/02 07:58:37;;;;;;;51.30;23.15;;;1.60;96.50;;;;;;5030260;28;20450;-81
2021/03/02 08:01:23;;;;;;;50.97;22.93;;;1.80;96.50;;;;;;5031701;28;20375;-81
2021/03/02 08:03:49;;;;;;;46.30;22.38;;;1.90;96.40;;;;;;5030111;28;20406;-81
2021/03/02 08:06:21;;;;;;;53.33;22.50;;;2.00;96.30;;;;;;5030289;28;20395;-81
2021/03/02 08:08:47;;;;;;;46.35;22.35;;;2.20;96.00;;;;;;5031300;28;20413;-81
2021/03/02 08:11:30;;;;;;;48.90;22.65;;;2.30;96.00;;;;;;5031834;28;20429;-81
2021/03/02 08:13:55;;;;;;;52.50;22.25;;;2.40;96.00;;;;;;5029425;28;20912;-81
2021/03/02 08:16:53;;;;;;;51.92;24.70;;;2.60;95.70;;;;;;5031559;28;20402;-81
2021/03/02 08:19:40;;;;;;;44.97;22.57;;;2.70;95.80;;;;;;5029889;28;20842;-81
2021/03/02 08:22:18;;;;;;;45.92;21.13;;;3.00;95.70;;;;;;5031649;28;20379;-81
2021/03/02 08:25:04;;;;;;;46.85;21.50;;;3.10;95.10;;;;;;5030067;28;20749;-81
2021/03/02 08:27:52;;;;;;;44.37;19.80;;;3.40;94.70;;;;;;5030049;28;20489;-81
2021/03/02 08:30:31;;;;;;;46.53;19.45;;;3.40;93.90;;;;;;5030063;28;20403;-81
2021/03/02 08:33:00;;;;;;;46.55;20.73;;;3.60;93.90;;;;;;5031651;28;20458;-81
2021/03/02 08:35:31;;;;;;;53.65;20.77;;;3.80;93.70;;;;;;5031502;28;20478;-81
2021/03/02 08:37:59;;;;;;;42.42;19.85;;;4.10;93.60;;;;;;5030599;28;20429;-81
2021/03/02 08:40:31;;;;;;;42.20;18.97;;;4.40;92.20;;;;;;5031045;28;20387;-81
2021/03/02 08:43:10;;;;;;;40.57;19.33;;;4.40;92.40;;;;;;5030962;28;20701;-81
2021/03/02 08:45:56;;;;;;;43.58;19.35;;;4.50;91.90;;;;;;5030961;28;20479;-81
2021/03/02 08:48:29;;;;;;;39.63;18.08;;;4.80;91.30;;;;;;5028939;28;20534;-81
2021/03/02 08:50:56;;;;;;;41.70;16.98;;;4.90;90.70;;;;;;5030809;28;20419;-81
2021/03/02 08:53:47;;;;;;;33.78;15.50;;;5.10;89.80;;;;;;5030040;28;20932;-87
2021/03/02 08:56:14;;;;;;;39.42;16.13;;;5.30;89.40;;;;;;5031316;28;20860;-88
2021/03/02 08:58:42;;;;;;;40.17;16.35;;;5.50;88.80;;;;;;5031161;28;20734;-88
2021/03/02 09:01:23;;;;;;;35.28;16.05;;;5.70;87.90;;;;;;5030054;28;20380;-89
2021/03/02 09:03:50;;;;;;;33.43;15.17;;;5.90;87.50;;;;;;5029782;28;20391;-89
2021/03/02 09:06:20;;;;;;;28.33;14.25;;;6.10;86.90;;;;;;5029148;28;20773;-89
2021/03/02 09:09:05;;;;;;;33.70;14.55;;;6.30;86.30;;;;;;5029429;28;20391;-88
2021/03/02 09:11:36;;;;;;;32.95;14.02;;;6.30;86.60;;;;;;5031075;28;20391;-88
2021/03/02 09:14:05;;;;;;;31.93;14.13;;;6.30;87.10;;;;;;5029832;28;20429;-88
2021/03/02 09:16:36;;;;;;;28.37;12.77;;;6.50;86.20;;;;;;5030186;28;20435;-88
2021/03/02 09:19:18;;;;;;;26.63;12.23;;;6.80;84.30;;;;;;5030844;28;20411;-88
2021/03/02 09:21:51;;;;;;;26.00;12.73;;;6.90;83.00;;;;;;5031294;28;20596;-88
2021/03/02 09:24:22;;;;;;;23.45;12.45;;;7.00;83.60;;;;;;5029055;28;20391;-89
2021/03/02 09:26:59;;;;;;;26.85;12.18;;;7.20;82.60;;;;;;5027033;28;20401;-88
2021/03/02 09:29:33;;;;;;;23.60;11.65;;;7.50;82.20;;;;;;5026697;28;20407;-89
2021/03/02 09:32:00;;;;;;;22.23;11.70;;;7.60;81.80;;;;;;5029094;28;20825;-88
2021/03/02 09:34:41;;;;;;;28.13;12.83;;;7.80;81.40;;;;;;5029511;28;20387;-89
2021/03/02 09:37:11;;;;;;;23.50;11.80;;;8.10;80.80;;;;;;5027884;28;20508;-88
2021/03/02 09:39:41;;;;;;;23.20;11.35;;;8.20;80.40;;;;;;5029489;28;20422;-88
2021/03/02 09:42:21;;;;;;;20.02;9.23;;;8.60;79.30;;;;;;5026409;28;20759;-87
2021/03/02 09:44:51;;;;;;;13.25;7.80;;;8.90;76.70;;;;;;5028014;28;20387;-89
2021/03/02 09:47:23;;;;;;;17.42;7.95;;;9.40;74.60;;;;;;5029733;28;20725;-89
2021/03/02 09:50:00;;;;;;;14.00;8.07;;;9.50;74.40;;;;;;5030472;28;20394;-89
2021/03/02 09:52:27;;;;;;;15.80;8.32;;;9.70;73.70;;;;;;5028770;28;20394;-89
2021/03/02 09:55:09;;;;;;;16.88;7.63;;;10.10;70.60;;;;;;5030356;28;20409;-89
2021/03/02 09:57:47;;;;;;;17.02;8.73;;;10.40;68.60;;;;;;5027942;28;20403;-89
2021/03/02 10:00:13;;;;;;;14.82;7.85;;;10.60;68.90;;;;;;5029214;28;20470;-90
2021/03/02 10:02:50;;;;;;;18.10;8.27;;;10.90;67.50;;;;;;5030163;28;20376;-88
2021/03/02 10:05:32;;;;;;;16.10;7.68;;;11.40;63.80;;;;;;5029621;28;20394;-88
2021/03/02 10:07:58;;;;;;;17.25;7.68;;;11.50;65.30;;;;;;5028941;28;20441;-90
2021/03/02 10:10:35;;;;;;;19.35;8.07;;;11.40;64.70;;;;;;5030632;28;20379;-90
2021/03/02 10:13:00;;;;;;;16.98;7.65;;;11.40;65.10;;;;;;5030818;28;20484;-90
2021/03/02 10:15:26;;;;;;;13.30;7.90;;;11.80;61.60;;;;;;5031204;28;20411;-91
2021/03/02 10:17:51;;;;;;;19.37;8.03;;;12.00;63.00;;;;;;5030109;28;20391;-89
2021/03/02 10:20:17;;;;;;;12.90;7.53;;;12.20;61.80;;;;;;5029338;28;20422;-89
2021/03/02 10:22:42;;;;;;;15.93;7.25;;;12.30;61.50;;;;;;5029295;28;20474;-92
2021/03/02 10:25:08;;;;;;;15.47;7.73;;;13.00;58.90;;;;;;5029709;28;20398;-89
2021/03/02 10:27:34;;;;;;;14.63;7.22;;;13.20;55.90;;;;;;5030355;28;20397;-90
2021/03/02 10:30:04;;;;;;;13.82;7.40;;;13.20;55.30;;;;;;5030705;28;20383;-89
2021/03/02 10:32:30;;;;;;;11.85;6.78;;;13.20;56.00;;;;;;5031034;28;20372;-90
2021/03/02 10:34:56;;;;;;;13.87;7.00;;;13.30;55.70;;;;;;5029457;28;20392;-88
2021/03/02 10:37:21;;;;;;;13.03;6.50;;;13.30;53.80;;;;;;5033490;28;20415;-90
2021/03/02 10:39:47;;;;;;;13.27;6.55;;;13.50;54.50;;;;;;5034075;28;20812;-91
2021/03/02 10:42:13;;;;;;;12.60;6.80;;;13.60;54.70;;;;;;5034316;28;20472;-89
2021/03/02 10:44:38;;;;;;;12.27;6.90;;;13.60;56.10;;;;;;5033332;28;20387;-89
2021/03/02 10:47:04;;;;;;;13.30;6.70;;;13.30;54.30;;;;;;5033858;28;20537;-90
2021/03/02 10:49:29;;;;;;;15.40;6.83;;;13.50;54.40;;;;;;5032637;28;20404;-90
2021/03/02 10:51:55;;;;;;;14.32;6.90;;;13.80;55.00;;;;;;5033125;28;20426;-91
2021/03/02 10:54:21;;;;;;;14.00;6.97;;;13.60;53.90;;;;;;5033879;28;20381;-90
2021/03/02 10:56:46;;;;;;;14.07;6.43;;;13.60;55.80;;;;;;5033531;28;20383;-89
2021/03/02 10:59:12;;;;;;;11.33;6.47;;;14.30;52.20;;;;;;5034135;28;20383;-90
2021/03/02 11:01:37;;;;;;;15.45;6.35;;;14.30;50.70;;;;;;5034023;28;20509;-90
2021/03/02 11:04:03;;;;;;;9.20;5.70;;;14.10;52.20;;;;;;5033905;28;20803;-89
2021/03/02 11:06:29;;;;;;;13.87;5.80;;;14.10;52.40;;;;;;5033356;28;20383;-89
2021/03/02 11:08:56;;;;;;;11.98;5.47;;;14.60;50.30;;;;;;5032340;28;20472;-89
2021/03/02 11:11:23;;;;;;;11.35;5.85;;;14.50;48.40;;;;;;5031959;28;20391;-91
2021/03/02 11:13:49;;;;;;;10.43;5.45;;;14.30;51.60;;;;;;5032672;28;20791;-90
2021/03/02 11:16:15;;;;;;;10.15;5.43;;;14.20;53.10;;;;;;5032296;28;20394;-89
2021/03/02 11:18:41;;;;;;;9.35;5.10;;;14.30;51.20;;;;;;5032198;28;20457;-90
2021/03/02 11:21:09;;;;;;;9.30;5.57;;;14.60;48.30;;;;;;5033307;28;20394;-90
2021/03/02 11:23:34;;;;;;;11.10;5.75;;;14.60;49.80;;;;;;5033799;28;20379;-90
2021/03/02 11:26:00;;;;;;;11.50;5.90;;;14.60;49.80;;;;;;5033404;28;20855;-90
2021/03/02 11:28:25;;;;;;;11.82;6.32;;;14.50;49.00;;;;;;5032810;28;20422;-89
2021/03/02 11:30:51;;;;;;;9.43;5.67;;;14.40;49.40;;;;;;5032004;28;20433;-88
2021/03/02 11:33:16;;;;;;;9.77;5.70;;;14.60;49.00;;;;;;5030344;28;20396;-88
2021/03/02 11:35:43;;;;;;;9.95;5.65;;;14.80;49.30;;;;;;5033387;28;20899;-89
2021/03/02 11:38:10;;;;;;;11.38;5.53;;;14.60;49.70;;;;;;5032452;28;20451;-88
2021/03/02 11:40:36;;;;;;;14.55;5.72;;;14.80;49.50;;;;;;5031896;28;20872;-89
2021/03/02 11:43:03;;;;;;;12.25;5.47;;;14.70;47.30;;;;;;5032821;28;20387;-88
2021/03/02 11:45:30;;;;;;;9.75;5.43;;;14.80;49.10;;;;;;5032670;28;20413;-88
2021/03/02 11:47:56;;;;;;;10.13;4.95;;;14.90;49.90;;;;;;5031171;28;20517;-88
2021/03/02 11:50:23;;;;;;;10.30;5.57;;;15.10;47.30;;;;;;5031371;28;20415;-87
2021/03/02 11:52:50;;;;;;;10.65;5.03;;;15.00;48.00;;;;;;5031259;28;20415;-86
2021/03/02 11:55:17;;;;;;;10.48;5.55;;;15.10;47.20;;;;;;5032752;28;20391;-88
2021/03/02 11:57:44;;;;;;;11.33;5.30;;;15.10;47.10;;;;;;5032070;28;20469;-87
2021/03/02 12:00:16;;;;;;;9.50;5.40;;;15.10;49.00;;;;;;5031066;28;20393;-87
2021/03/02 12:02:44;;;;;;;9.00;5.10;;;15.40;49.40;;;;;;5031096;28;20689;-87
2021/03/02 12:05:11;;;;;;;13.73;5.67;;;15.40;47.00;;;;;;5031103;28;20395;-87
2021/03/02 12:07:36;;;;;;;10.60;5.43;;;15.40;45.80;;;;;;5031697;28;20372;-87
2021/03/02 12:10:05;;;;;;;9.43;5.00;;;15.60;45.90;;;;;;5030920;28;20430;-87
2021/03/02 12:12:31;;;;;;;8.30;3.97;;;15.90;43.90;;;;;;5032631;28;20721;-86
2021/03/02 12:14:56;;;;;;;5.95;3.97;;;16.00;40.60;;;;;;5030487;28;20383;-87
2021/03/02 12:17:22;;;;;;;7.80;3.60;;;16.10;41.00;;;;;;5030445;28;20473;-87
2021/03/02 12:19:47;;;;;;;6.30;3.90;;;15.90;41.70;;;;;;5030624;28;20403;-87
2021/03/02 12:22:13;;;;;;;5.55;3.63;;;15.90;41.50;;;;;;5030696;28;20397;-86
2021/03/02 12:24:39;;;;;;;12.45;4.78;;;16.10;42.90;;;;;;5030742;28;20772;-86
2021/03/02 12:27:04;;;;;;;10.80;4.40;;;16.30;39.30;;;;;;5031450;28;20390;-86
2021/03/02 12:29:30;;;;;;;9.43;4.00;;;16.30;40.90;;;;;;5030247;28;20477;-86
2021/03/02 12:31:56;;;;;;;9.13;4.07;;;15.90;40.50;;;;;;5030431;28;20461;-88
2021/03/02 12:34:21;;;;;;;8.88;4.07;;;16.30;40.20;;;;;;5031555;28;20375;-87
2021/03/02 12:36:47;;;;;;;12.30;3.83;;;16.10;38.90;;;;;;5029838;28;20397;-87
2021/03/02 12:39:12;;;;;;;7.80;3.53;;;16.30;39.90;;;;;;5030705;28;20422;-87